Time;durP1;ratioP1;P1;durP2;ratioP2;P2;SDS_P1;SDS_P2;PMS_P1;PMS_P2;Temp;Humidity;BMP_temperature;BMP_pressure;BME280_temperature;BME280_humidity;BME280_pressure;Samples;Min_cycle;Max_cycle;Signal;HPM_P1;HPM_P2
2023/12/10 00:02:00;;;;;;;;;2.00;2.00;;;;;9.86;91.57;100806.81;5057234;28;69439;-54
2023/12/10 00:04:25;;;;;;;;;5.00;1.00;;;;;9.84;91.35;100809.56;5057109;28;75611;-54
2023/12/10 00:06:51;;;;;;;;;2.00;1.00;;;;;9.84;91.36;100816.66;5057288;28;72933;-55
2023/12/10 00:09:16;;;;;;;;;2.00;2.00;;;;;9.83;91.14;100809.59;5058769;28;67128;-56
2023/12/10 00:11:41;;;;;;;;;2.00;1.00;;;;;9.83;91.56;100820.22;5059161;28;45473;-57
2023/12/10 00:14:07;;;;;;;;;1.33;1.00;;;;;9.81;91.43;100815.00;5059206;28;74428;-57
2023/12/10 00:16:32;;;;;;;;;1.33;1.33;;;;;9.81;91.87;100822.13;5059360;28;45529;-57
2023/12/10 00:18:57;;;;;;;;;2.00;1.00;;;;;9.80;91.64;100825.69;5086153;27;45748;-57
2023/12/10 00:21:23;;;;;;;;;3.00;1.00;;;;;9.80;91.43;100833.66;5051341;28;69254;-57
2023/12/10 00:23:48;;;;;;;;;2.00;2.00;;;;;9.77;91.15;100832.88;5060571;28;71898;-57
2023/12/10 00:26:14;;;;;;;;;3.67;2.00;;;;;9.75;90.52;100837.41;5060841;28;45637;-57
2023/12/10 00:28:39;;;;;;;;;0.67;0.67;;;;;9.75;91.40;100842.72;5060275;28;45348;-57
2023/12/10 00:31:07;;;;;;;;;3.33;1.00;;;;;9.72;90.93;100840.19;5060902;28;45457;-57
2023/12/10 00:33:33;;;;;;;;;1.33;1.00;;;;;9.72;91.72;100842.00;5060905;28;45474;-56
2023/12/10 00:35:59;;;;;;;;;2.33;1.00;;;;;9.70;91.37;100851.81;5093578;27;45597;-57
2023/12/10 00:38:24;;;;;;;;;2.00;0.00;;;;;9.70;91.61;100841.19;5077085;28;45319;-57
2023/12/10 00:40:49;;;;;;;;;3.00;1.33;;;;;9.68;91.79;100848.38;5060723;28;54463;-57
2023/12/10 00:43:16;;;;;;;;;3.00;2.00;;;;;9.67;91.66;100844.84;5090156;27;46348;-57
2023/12/10 00:45:42;;;;;;;;;1.67;1.00;;;;;9.66;91.70;100855.53;5061402;28;45409;-57
2023/12/10 00:48:07;;;;;;;;;2.00;1.00;;;;;9.66;92.25;100856.41;5060454;28;45322;-57
2023/12/10 00:50:32;;;;;;;;;1.33;0.00;;;;;9.64;91.71;100857.41;5060497;28;45418;-57
2023/12/10 00:52:58;;;;;;;;;5.33;2.33;;;;;9.63;92.52;100858.34;5059078;28;74873;-57
2023/12/10 00:55:23;;;;;;;;;2.00;0.00;;;;;9.61;92.55;100871.69;5060778;28;50205;-57
2023/12/10 00:57:48;;;;;;;;;2.00;1.00;;;;;9.58;91.97;100872.69;5058135;28;68358;-57
2023/12/10 01:00:14;;;;;;;;;0.00;0.00;;;;;9.59;92.69;100877.09;5091102;27;45494;-57
2023/12/10 01:02:39;;;;;;;;;6.67;0.33;;;;;9.57;92.54;100881.59;5060214;28;45479;-57
2023/12/10 01:05:05;;;;;;;;;1.00;1.00;;;;;9.56;92.59;100881.66;5060410;28;45329;-57
2023/12/10 01:07:31;;;;;;;;;2.00;1.67;;;;;9.55;91.49;100891.41;5060385;28;45453;-58
2023/12/10 01:09:56;;;;;;;;;2.00;0.00;;;;;9.55;92.75;100899.38;5059343;28;69184;-57
2023/12/10 01:12:21;;;;;;;;;2.00;2.00;;;;;9.54;92.25;100887.03;5059151;28;74635;-57
2023/12/10 01:14:46;;;;;;;;;2.67;1.00;;;;;9.55;92.76;100898.50;5058199;28;72212;-57
2023/12/10 01:17:15;;;;;;;;;4.00;1.00;;;;;9.55;92.75;100909.13;5060112;28;45425;-57
2023/12/10 01:19:40;;;;;;;;;1.00;1.00;;;;;9.58;92.61;100914.31;5059792;28;45650;-57
2023/12/10 01:22:05;;;;;;;;;4.00;2.00;;;;;9.63;92.82;100906.16;5059922;28;46312;-57
2023/12/10 01:24:31;;;;;;;;;1.00;1.00;;;;;9.66;93.03;100917.50;5059482;28;72344;-57
2023/12/10 01:26:56;;;;;;;;;3.00;1.67;;;;;9.69;92.70;100935.09;5059365;28;69471;-57
2023/12/10 01:29:21;;;;;;;;;4.67;2.33;;;;;9.68;92.46;100930.72;5058527;28;45608;-57
2023/12/10 01:31:46;;;;;;;;;0.67;0.67;;;;;9.66;92.38;100930.78;5058378;28;75478;-57
2023/12/10 01:34:12;;;;;;;;;5.33;1.00;;;;;9.66;92.47;100940.53;5057410;28;72087;-57
2023/12/10 01:36:37;;;;;;;;;3.00;1.33;;;;;9.64;91.92;100940.59;5059532;28;65845;-57
2023/12/10 01:39:03;;;;;;;;;3.00;1.00;;;;;9.62;92.17;100953.09;5060252;28;45252;-57
2023/12/10 01:41:29;;;;;;;;;3.33;1.00;;;;;9.60;92.59;100952.28;5092860;27;47181;-57
2023/12/10 01:43:54;;;;;;;;;1.33;0.67;;;;;9.59;92.40;100942.59;5058141;28;72168;-57
2023/12/10 01:46:21;;;;;;;;;1.67;0.00;;;;;9.57;92.39;100937.34;5060057;28;53659;-57
2023/12/10 01:48:50;;;;;;;;;3.00;1.00;;;;;9.57;92.13;100952.44;5059692;28;45504;-57
2023/12/10 01:51:15;;;;;;;;;1.00;1.00;;;;;9.56;92.11;100954.22;5059148;28;45459;-57
2023/12/10 01:53:40;;;;;;;;;0.33;0.33;;;;;9.54;92.63;100945.47;5059866;28;45375;-57
2023/12/10 01:56:07;;;;;;;;;1.33;1.33;;;;;9.53;91.84;100949.03;5093522;27;45406;-57
2023/12/10 01:58:34;;;;;;;;;1.00;1.00;;;;;9.53;91.81;100950.81;5059417;28;45519;-55
2023/12/10 02:01:00;;;;;;;;;2.00;0.67;;;;;9.52;92.20;100957.09;5059589;28;45363;-56
2023/12/10 02:03:25;;;;;;;;;0.00;0.00;;;;;9.53;92.59;100950.81;5058550;28;45451;-57
2023/12/10 02:05:51;;;;;;;;;3.67;1.00;;;;;9.51;91.59;100950.03;5058568;28;45418;-56
2023/12/10 02:08:17;;;;;;;;;0.00;0.00;;;;;9.51;92.46;100953.53;5059986;28;45511;-56
2023/12/10 02:10:42;;;;;;;;;3.67;1.00;;;;;9.50;92.86;100954.47;5058136;28;47016;-57
2023/12/10 02:13:08;;;;;;;;;2.33;1.00;;;;;9.49;93.11;100962.50;5057838;28;72730;-57
2023/12/10 02:15:33;;;;;;;;;0.33;0.33;;;;;9.46;92.44;100965.31;5058971;28;66622;-56
2023/12/10 02:17:58;;;;;;;;;1.00;1.00;;;;;9.45;92.38;100972.38;5058325;28;65285;-57
2023/12/10 02:20:24;;;;;;;;;1.00;1.00;;;;;9.43;92.53;100982.22;5058396;28;68658;-57
2023/12/10 02:23:04;;;;;;;;;3.00;0.00;;;;;9.43;92.67;100985.72;5058283;28;45370;-57
2023/12/10 02:25:39;;;;;;;;;0.00;0.00;;;;;9.42;92.81;100978.69;5055227;28;45441;-56
2023/12/10 02:28:06;;;;;;;;;1.67;0.33;;;;;9.41;92.79;100979.66;5057667;28;45446;-58
2023/12/10 02:30:32;;;;;;;;;0.00;0.00;;;;;9.41;92.83;100981.41;5056802;28;49713;-56
2023/12/10 02:32:58;;;;;;;;;3.00;1.00;;;;;9.39;92.43;100984.13;5056797;28;45468;-57
2023/12/10 02:35:23;;;;;;;;;1.67;1.00;;;;;9.39;91.97;100980.63;5055426;28;45565;-56
2023/12/10 02:37:49;;;;;;;;;1.00;1.00;;;;;9.37;91.90;100991.31;5054432;28;65296;-57
2023/12/10 02:40:16;;;;;;;;;0.00;0.00;;;;;9.37;92.12;100986.00;5058822;28;46429;-57
2023/12/10 02:42:42;;;;;;;;;1.33;0.33;;;;;9.38;92.95;100979.75;5059086;28;45345;-56
2023/12/10 02:45:08;;;;;;;;;2.00;1.00;;;;;9.37;92.28;100979.81;5059009;28;45268;-57
2023/12/10 02:47:34;;;;;;;;;2.33;0.00;;;;;9.38;92.66;100984.22;5057790;28;45652;-57
2023/12/10 02:50:00;;;;;;;;;2.00;0.00;;;;;9.36;92.71;100986.94;5058538;28;45675;-56
2023/12/10 02:52:25;;;;;;;;;3.33;1.00;;;;;9.36;92.71;100983.41;5058071;28;62234;-55
2023/12/10 02:54:50;;;;;;;;;0.00;0.00;;;;;9.37;92.82;100979.81;5059442;28;45308;-56
2023/12/10 02:57:16;;;;;;;;;2.00;1.00;;;;;9.36;92.80;100986.94;5058509;28;45370;-56
2023/12/10 02:59:41;;;;;;;;;0.00;0.00;;;;;9.36;92.51;100989.59;5059012;28;45450;-56
2023/12/10 03:02:06;;;;;;;;;3.00;1.67;;;;;9.36;92.64;100992.25;5058315;28;45602;-57
2023/12/10 03:04:32;;;;;;;;;0.00;0.00;;;;;9.36;92.33;101001.97;5057302;28;57095;-57
2023/12/10 03:06:57;;;;;;;;;4.00;1.00;;;;;9.38;92.58;101024.88;5056410;28;70600;-57
2023/12/10 03:09:22;;;;;;;;;2.00;2.00;;;;;9.40;92.57;101019.53;5056544;28;74534;-56
2023/12/10 03:11:48;;;;;;;;;3.67;2.67;;;;;9.43;92.06;101022.06;5057953;28;68363;-57
2023/12/10 03:14:13;;;;;;;;;5.00;2.00;;;;;9.46;91.19;101026.38;5056821;28;69433;-57
2023/12/10 03:16:38;;;;;;;;;0.00;0.00;;;;;9.49;91.79;101018.28;5058024;28;69674;-57
2023/12/10 03:19:04;;;;;;;;;0.00;0.00;;;;;9.51;91.57;101019.09;5055878;28;77056;-56
2023/12/10 03:21:29;;;;;;;;;5.00;1.00;;;;;9.53;90.53;101017.19;5057755;28;71362;-57
2023/12/10 03:23:54;;;;;;;;;2.33;1.67;;;;;9.54;90.77;101018.94;5057130;28;69594;-57
2023/12/10 03:26:19;;;;;;;;;5.33;1.00;;;;;9.55;91.52;101018.03;5055830;28;57665;-57
2023/12/10 03:28:45;;;;;;;;;4.67;2.00;;;;;9.56;90.45;101035.69;5057656;28;54645;-57
2023/12/10 03:31:10;;;;;;;;;0.33;0.33;;;;;9.59;91.00;101043.50;5041252;28;45256;-57
2023/12/10 03:33:35;;;;;;;;;4.67;2.67;;;;;9.64;91.51;101044.19;5056855;28;45398;-57
2023/12/10 03:36:01;;;;;;;;;1.00;1.00;;;;;9.68;91.50;101043.13;5057105;28;68336;-57
2023/12/10 03:38:26;;;;;;;;;0.00;0.00;;;;;9.71;91.99;101043.00;5057662;28;69100;-57
2023/12/10 03:40:51;;;;;;;;;1.00;0.00;;;;;9.75;91.58;101044.59;5056753;28;45950;-57
2023/12/10 03:43:17;;;;;;;;;1.67;1.67;;;;;9.79;91.67;101065.72;5061884;28;68177;-57
2023/12/10 03:45:42;;;;;;;;;6.33;0.00;;;;;9.79;91.06;101071.91;5063836;28;70082;-57
2023/12/10 03:48:07;;;;;;;;;2.00;0.00;;;;;9.82;91.25;101100.13;5062681;28;71289;-56
2023/12/10 03:50:33;;;;;;;;;1.33;0.33;;;;;9.85;91.57;101105.31;5072608;28;73103;-57
2023/12/10 03:52:58;;;;;;;;;1.33;1.00;;;;;9.88;91.34;101100.75;5063749;28;69444;-57
2023/12/10 03:55:23;;;;;;;;;0.33;0.00;;;;;9.91;91.77;101113.88;5064183;28;70331;-57
2023/12/10 03:57:50;;;;;;;;;0.00;0.00;;;;;9.93;91.09;101119.13;5059853;28;75715;-56
2023/12/10 04:00:16;;;;;;;;;3.00;1.00;;;;;9.93;90.89;101095.22;5061962;28;45405;-56
2023/12/10 04:02:42;;;;;;;;;0.00;0.00;;;;;9.91;91.20;101103.25;5064757;28;45608;-56
2023/12/10 04:05:11;;;;;;;;;2.00;1.67;;;;;9.88;91.14;101095.44;5064480;28;45673;-56
2023/12/10 04:07:37;;;;;;;;;1.67;1.67;;;;;9.84;91.16;101099.16;5064105;28;45411;-57
2023/12/10 04:10:03;;;;;;;;;2.00;1.00;;;;;9.77;90.30;101105.63;5064367;28;45310;-57
2023/12/10 04:12:30;;;;;;;;;0.00;0.00;;;;;9.71;90.80;101108.53;5064312;28;45407;-57
2023/12/10 04:14:55;;;;;;;;;6.33;3.00;;;;;9.68;91.40;101101.56;5063910;28;45591;-56
2023/12/10 04:17:21;;;;;;;;;2.00;1.00;;;;;9.67;91.56;101088.34;5064261;28;62579;-56
2023/12/10 04:19:46;;;;;;;;;2.00;1.00;;;;;9.68;91.76;101092.75;5062067;28;73400;-56
2023/12/10 04:22:11;;;;;;;;;0.00;0.00;;;;;9.71;91.61;101101.44;5076869;28;45960;-56
2023/12/10 04:24:37;;;;;;;;;1.00;0.67;;;;;9.74;91.89;101105.78;5064075;28;61642;-56
2023/12/10 04:27:02;;;;;;;;;0.00;0.00;;;;;9.73;92.09;101096.91;5063481;28;75985;-57
2023/12/10 04:29:28;;;;;;;;;2.00;1.00;;;;;9.72;91.57;101105.81;5063794;28;45504;-56
2023/12/10 04:31:54;;;;;;;;;2.33;1.33;;;;;9.71;92.05;101111.19;5063185;28;68625;-56
2023/12/10 04:34:19;;;;;;;;;1.00;0.00;;;;;9.70;92.22;101104.16;5063583;28;45513;-56
2023/12/10 04:36:45;;;;;;;;;1.00;1.00;;;;;9.69;92.33;101118.38;5058588;28;74501;-56
2023/12/10 04:39:10;;;;;;;;;2.00;0.33;;;;;9.66;91.99;101113.16;5062311;28;45474;-56
2023/12/10 04:41:36;;;;;;;;;1.33;0.67;;;;;9.65;92.01;101106.13;5062763;28;68107;-56
2023/12/10 04:44:01;;;;;;;;;0.00;0.00;;;;;9.66;91.63;101102.53;5062336;28;70857;-56
2023/12/10 04:46:27;;;;;;;;;1.33;1.00;;;;;9.68;92.19;101108.69;5064232;28;45979;-56
2023/12/10 04:48:52;;;;;;;;;2.00;1.00;;;;;9.69;92.16;101083.84;5063502;28;62502;-56
2023/12/10 04:51:17;;;;;;;;;3.67;2.00;;;;;9.64;92.03;101099.97;5096342;27;69111;-57
2023/12/10 04:53:43;;;;;;;;;0.00;0.00;;;;;9.60;92.18;101091.25;5060733;28;69393;-56
2023/12/10 04:56:09;;;;;;;;;3.00;1.67;;;;;9.55;92.26;101103.00;5059206;28;72967;-56
2023/12/10 04:58:34;;;;;;;;;5.00;0.00;;;;;9.52;92.13;101098.69;5060380;28;45569;-57
2023/12/10 05:00:59;;;;;;;;;1.33;0.33;;;;;9.49;92.60;101111.22;5060451;28;45566;-56
2023/12/10 05:03:25;;;;;;;;;1.67;0.67;;;;;9.49;92.81;101104.13;5060833;28;45408;-57
2023/12/10 05:05:50;;;;;;;;;1.00;1.00;;;;;9.47;92.90;101103.31;5059932;28;67573;-57
2023/12/10 05:08:15;;;;;;;;;1.33;0.00;;;;;9.43;92.54;101104.38;5059253;28;72050;-56
2023/12/10 05:10:41;;;;;;;;;4.67;1.67;;;;;9.46;92.69;101100.72;5060443;28;69345;-57
2023/12/10 05:13:06;;;;;;;;;2.00;0.00;;;;;9.49;92.75;101120.06;5091376;27;64364;-57
2023/12/10 05:15:31;;;;;;;;;0.00;0.00;;;;;9.54;92.68;101120.75;5059572;28;74587;-56
2023/12/10 05:17:59;;;;;;;;;3.00;0.00;;;;;9.58;92.90;101121.44;5060166;28;45370;-56
2023/12/10 05:20:25;;;;;;;;;1.00;1.00;;;;;9.58;92.71;101121.44;5061302;28;45437;-57
2023/12/10 05:22:50;;;;;;;;;2.33;0.33;;;;;9.58;92.82;101126.75;5059311;28;68832;-57
2023/12/10 05:25:15;;;;;;;;;1.67;1.00;;;;;9.55;92.38;101117.13;5058135;28;46500;-57
2023/12/10 05:27:41;;;;;;;;;4.00;2.00;;;;;9.55;92.13;101118.94;5056326;28;52755;-57
2023/12/10 05:30:06;;;;;;;;;2.00;0.33;;;;;9.55;92.68;101133.06;5058528;28;46021;-57
2023/12/10 05:32:32;;;;;;;;;2.00;1.00;;;;;9.56;92.60;101137.47;5058765;28;45576;-57
2023/12/10 05:34:57;;;;;;;;;2.00;1.00;;;;;9.55;92.84;101137.53;5059211;28;49083;-57
2023/12/10 05:37:22;;;;;;;;;3.00;0.00;;;;;9.53;93.09;101134.94;5056632;28;73400;-57
2023/12/10 05:39:48;;;;;;;;;2.33;2.00;;;;;9.51;92.64;101150.06;5059503;28;67953;-57
2023/12/10 05:42:13;;;;;;;;;2.00;0.67;;;;;9.53;92.75;101155.28;5058872;28;70835;-57
2023/12/10 05:44:38;;;;;;;;;3.00;1.00;;;;;9.53;92.70;101155.28;5088874;27;74398;-57
2023/12/10 05:47:03;;;;;;;;;2.67;1.67;;;;;9.52;92.51;101154.44;5058440;28;70567;-57
2023/12/10 05:49:29;;;;;;;;;1.00;0.67;;;;;9.51;92.64;101162.47;5059184;28;66949;-57
2023/12/10 05:51:54;;;;;;;;;1.00;1.00;;;;;9.50;92.37;101166.06;5057607;28;66939;-57
2023/12/10 05:54:20;;;;;;;;;1.33;1.00;;;;;9.49;92.64;101169.63;5059794;28;45994;-57
2023/12/10 05:56:45;;;;;;;;;0.00;0.00;;;;;9.49;93.09;101172.28;5058645;28;65325;-57
2023/12/10 05:59:11;;;;;;;;;0.00;0.00;;;;;9.50;92.67;101177.53;5057541;28;46951;-57
2023/12/10 06:01:36;;;;;;;;;0.00;0.00;;;;;9.54;92.63;101175.63;5060191;28;45481;-57
2023/12/10 06:04:01;;;;;;;;;0.33;0.33;;;;;9.56;92.94;101184.41;5058467;28;70825;-57
2023/12/10 06:06:27;;;;;;;;;0.67;0.67;;;;;9.64;92.84;101184.09;5087590;27;45441;-57
2023/12/10 06:08:52;;;;;;;;;1.00;1.00;;;;;9.66;92.24;101175.16;5058814;28;68226;-57
2023/12/10 06:11:17;;;;;;;;;2.00;0.67;;;;;9.68;92.67;101180.38;5058829;28;60344;-56
2023/12/10 06:13:43;;;;;;;;;2.67;0.00;;;;;9.68;92.33;101183.06;5072542;28;74556;-57
2023/12/10 06:16:08;;;;;;;;;4.00;1.00;;;;;9.70;92.42;101184.72;5058440;28;64747;-57
2023/12/10 06:18:33;;;;;;;;;1.33;1.00;;;;;9.71;92.37;101177.59;5058665;28;45387;-57
2023/12/10 06:20:59;;;;;;;;;2.00;0.67;;;;;9.71;92.19;101180.25;5058256;28;45621;-57
2023/12/10 06:23:24;;;;;;;;;2.00;1.00;;;;;9.70;92.05;101175.88;5058310;28;67085;-56
2023/12/10 06:25:50;;;;;;;;;2.33;1.00;;;;;9.67;92.32;101173.34;5058642;28;67332;-57
2023/12/10 06:28:16;;;;;;;;;1.67;1.00;;;;;9.70;92.35;101167.91;5058065;28;45303;-56
2023/12/10 06:30:41;;;;;;;;;3.00;1.00;;;;;9.69;92.38;101167.03;5055367;28;45469;-56
2023/12/10 06:33:06;;;;;;;;;1.33;1.00;;;;;9.67;91.79;101168.88;5056380;28;75999;-57
2023/12/10 06:35:32;;;;;;;;;2.33;2.33;;;;;9.68;92.10;101167.13;5059310;28;45934;-56
2023/12/10 06:37:57;;;;;;;;;1.00;1.00;;;;;9.67;91.90;101168.88;5058782;28;45528;-57
2023/12/10 06:40:23;;;;;;;;;1.67;1.00;;;;;9.68;92.02;101169.78;5058431;28;69383;-57
2023/12/10 06:42:48;;;;;;;;;2.00;0.33;;;;;9.67;91.92;101163.56;5058727;28;45345;-57
2023/12/10 06:45:13;;;;;;;;;1.33;0.00;;;;;9.67;92.18;101158.25;5058527;28;45612;-57
2023/12/10 06:47:39;;;;;;;;;3.67;1.00;;;;;9.66;92.04;101161.88;5058476;28;51007;-57
2023/12/10 06:50:05;;;;;;;;;3.00;1.33;;;;;9.63;92.24;101158.47;5058966;28;45674;-57
2023/12/10 06:52:30;;;;;;;;;1.00;1.00;;;;;9.60;91.81;101154.13;5059500;28;46070;-57
2023/12/10 06:54:55;;;;;;;;;4.33;1.33;;;;;9.59;92.28;101153.28;5057293;28;72206;-56
2023/12/10 06:57:21;;;;;;;;;0.00;0.00;;;;;9.57;92.21;101159.59;5058162;28;68336;-57
2023/12/10 06:59:46;;;;;;;;;0.00;0.00;;;;;9.55;91.52;101169.38;5055930;28;70596;-56
2023/12/10 07:02:11;;;;;;;;;4.00;1.67;;;;;9.53;91.96;101168.56;5057817;28;74869;-57
2023/12/10 07:04:37;;;;;;;;;1.00;1.00;;;;;9.53;91.84;101166.81;5058843;28;45496;-57
2023/12/10 07:07:02;;;;;;;;;1.00;1.00;;;;;9.53;91.65;101163.25;5058643;28;45368;-57
2023/12/10 07:09:28;;;;;;;;;1.00;1.00;;;;;9.54;91.77;101173.84;5058845;28;45563;-57
2023/12/10 07:11:53;;;;;;;;;1.67;0.67;;;;;9.56;92.22;101171.13;5055961;28;46253;-57
2023/12/10 07:14:18;;;;;;;;;2.00;0.00;;;;;9.57;91.65;101170.22;5056902;28;72136;-57
2023/12/10 07:16:44;;;;;;;;;0.00;0.00;;;;;9.58;92.08;101178.09;5057499;28;64183;-56
2023/12/10 07:19:09;;;;;;;;;2.00;2.00;;;;;9.59;90.99;101181.63;5058067;28;45300;-56
2023/12/10 07:21:34;;;;;;;;;0.00;0.00;;;;;9.61;91.75;101182.44;5090637;27;70964;-56
2023/12/10 07:24:00;;;;;;;;;1.00;0.00;;;;;9.63;91.69;101180.56;5056873;28;73367;-57
2023/12/10 07:26:25;;;;;;;;;5.00;1.00;;;;;9.66;91.38;101184.88;5058073;28;45734;-56
2023/12/10 07:28:51;;;;;;;;;3.67;1.00;;;;;9.67;91.86;101195.44;5056210;28;45462;-56
2023/12/10 07:31:20;;;;;;;;;5.00;3.67;;;;;9.67;91.75;101195.44;5056784;28;45702;-56
2023/12/10 07:33:45;;;;;;;;;3.67;3.00;;;;;9.68;91.88;101199.84;5057707;28;45547;-56
2023/12/10 07:36:11;;;;;;;;;2.00;2.00;;;;;9.68;91.78;101204.31;5056070;28;66853;-56
2023/12/10 07:38:37;;;;;;;;;1.00;1.00;;;;;9.67;91.52;101194.59;5056521;28;69404;-56
2023/12/10 07:41:02;;;;;;;;;3.00;1.33;;;;;9.66;91.39;101193.75;5058409;28;45343;-57
2023/12/10 07:43:27;;;;;;;;;5.00;2.00;;;;;9.64;91.81;101200.91;5058268;28;45525;-57
2023/12/10 07:45:53;;;;;;;;;1.00;1.00;;;;;9.64;91.75;101197.38;5055303;28;45663;-57
2023/12/10 07:48:19;;;;;;;;;1.33;1.33;;;;;9.64;91.90;101203.56;5046503;28;45466;-56
2023/12/10 07:50:45;;;;;;;;;3.00;1.00;;;;;9.64;91.93;101195.56;5087839;27;47157;-57
2023/12/10 07:53:10;;;;;;;;;2.67;1.00;;;;;9.68;92.44;101194.53;5057187;28;73211;-57
2023/12/10 07:55:35;;;;;;;;;1.00;1.00;;;;;9.73;92.45;101200.53;5058203;28;45512;-57
2023/12/10 07:58:01;;;;;;;;;2.00;0.67;;;;;9.77;92.61;101202.13;5056856;28;64549;-57
2023/12/10 08:00:27;;;;;;;;;2.00;2.00;;;;;9.83;92.34;101203.69;5056838;28;71936;-56
2023/12/10 08:02:52;;;;;;;;;2.00;1.33;;;;;9.85;91.67;101196.50;5058263;28;45304;-57
2023/12/10 08:05:17;;;;;;;;;3.67;2.00;;;;;9.89;92.02;101194.59;5057408;28;45164;-57
2023/12/10 08:07:43;;;;;;;;;1.67;1.00;;;;;9.91;92.09;101177.66;5058477;28;45280;-57
2023/12/10 08:10:08;;;;;;;;;5.33;1.00;;;;;9.92;91.35;101179.41;5057469;28;48490;-57
2023/12/10 08:12:34;;;;;;;;;0.67;0.67;;;;;9.93;91.84;101177.59;5058212;28;45637;-57
2023/12/10 08:15:00;;;;;;;;;1.00;1.00;;;;;9.94;92.16;101177.53;5057231;28;45398;-57
2023/12/10 08:17:25;;;;;;;;;3.33;1.00;;;;;9.94;91.07;101166.88;5059188;28;45477;-57
2023/12/10 08:19:50;;;;;;;;;1.67;1.00;;;;;9.94;91.17;101171.34;5058099;28;69938;-57
2023/12/10 08:22:15;;;;;;;;;2.00;1.00;;;;;9.94;91.54;101163.38;5056964;28;73240;-57
2023/12/10 08:24:41;;;;;;;;;5.33;1.33;;;;;9.94;91.48;101177.53;5090123;27;45690;-57
2023/12/10 08:27:06;;;;;;;;;2.33;1.00;;;;;9.96;91.67;101185.47;5056832;28;69641;-57
2023/12/10 08:29:32;;;;;;;;;2.67;1.00;;;;;10.00;91.34;101186.16;5041523;28;46254;-57
2023/12/10 08:31:58;;;;;;;;;3.00;2.00;;;;;10.02;91.50;101187.84;5061004;28;45358;-56
2023/12/10 08:34:23;;;;;;;;;1.00;1.00;;;;;10.04;90.86;101203.75;5061014;28;45290;-57
2023/12/10 08:36:48;;;;;;;;;1.33;1.00;;;;;10.05;90.95;101194.81;5059940;28;70288;-60
2023/12/10 08:39:14;;;;;;;;;5.50;2.50;;;;;10.07;91.13;101187.66;5059498;28;68841;-64
2023/12/10 08:41:39;;;;;;;;;1.00;1.00;;;;;10.08;90.86;101186.72;5058023;28;45397;-61
2023/12/10 08:44:04;;;;;;;;;2.33;1.67;;;;;10.11;91.41;101183.94;5055921;28;68493;-58
2023/12/10 08:46:30;;;;;;;;;4.33;2.00;;;;;10.15;90.94;101195.31;5057429;28;70799;-59
2023/12/10 08:48:55;;;;;;;;;2.00;1.00;;;;;10.14;89.84;101185.59;5062540;28;75617;-59
2023/12/10 08:51:20;;;;;;;;;2.33;1.00;;;;;10.16;90.53;101183.75;5056668;28;45402;-59
2023/12/10 08:53:46;;;;;;;;;2.67;0.67;;;;;10.20;90.57;101177.38;5054054;28;45737;-60
2023/12/10 08:56:11;;;;;;;;;1.33;1.33;;;;;10.24;90.36;101176.31;5052785;28;69483;-59
2023/12/10 08:58:36;;;;;;;;;1.00;1.00;;;;;10.28;90.20;101164.59;5060122;28;75429;-60
2023/12/10 09:01:03;;;;;;;;;3.00;2.00;;;;;10.32;89.95;101157.38;5059925;28;68096;-57
2023/12/10 09:03:28;;;;;;;;;3.00;1.33;;;;;10.35;90.10;101149.25;5072510;27;45327;-59
2023/12/10 09:05:53;;;;;;;;;6.00;3.00;;;;;10.37;89.37;101144.78;5054566;28;45491;-60
2023/12/10 09:08:19;;;;;;;;;3.00;1.00;;;;;10.37;88.23;101142.97;5056559;28;56789;-60
2023/12/10 09:10:44;;;;;;;;;3.33;2.00;;;;;10.36;88.70;101140.38;5060919;28;51331;-60
2023/12/10 09:13:10;;;;;;;;;2.00;1.00;;;;;10.41;89.52;101138.38;5058527;27;45711;-59
2023/12/10 09:15:35;;;;;;;;;1.67;1.67;;;;;10.46;88.34;101143.50;5055584;28;69309;-60
2023/12/10 09:18:02;;;;;;;;;2.00;2.00;;;;;10.47;88.35;101129.25;5054781;28;45331;-59
2023/12/10 09:20:27;;;;;;;;;1.33;1.33;;;;;10.50;87.68;101119.34;5043073;28;45475;-60
2023/12/10 09:22:52;;;;;;;;;2.00;0.67;;;;;10.55;88.52;101129.81;5056848;28;68221;-58
2023/12/10 09:25:18;;;;;;;;;2.00;2.00;;;;;10.54;86.62;101114.78;5057155;28;70542;-58
2023/12/10 09:27:43;;;;;;;;;3.67;1.00;;;;;10.51;86.02;101110.44;5055823;28;46371;-59
2023/12/10 09:30:09;;;;;;;;;5.33;3.33;;;;;10.51;86.67;101107.78;5057710;28;67955;-59
2023/12/10 09:32:34;;;;;;;;;6.33;2.00;;;;;10.48;86.29;101107.06;5057794;28;45339;-59
2023/12/10 09:35:00;;;;;;;;;2.00;2.00;;;;;10.48;87.18;101099.09;5055723;28;55228;-59
2023/12/10 09:37:26;;;;;;;;;4.00;3.00;;;;;10.50;86.38;101100.75;5059729;28;46147;-59
2023/12/10 09:39:51;;;;;;;;;2.00;1.00;;;;;10.51;87.27;101104.28;5054502;28;45213;-59
2023/12/10 09:42:16;;;;;;;;;3.00;1.00;;;;;10.50;87.39;101090.09;5060254;28;45481;-58
2023/12/10 09:44:42;;;;;;;;;1.67;1.67;;;;;10.55;87.52;101060.66;5054645;28;45570;-58
2023/12/10 09:47:10;;;;;;;;;1.67;1.67;;;;;10.59;86.84;101102.97;5055071;28;75420;-59
2023/12/10 09:49:38;;;;;;;;;4.00;2.00;;;;;10.62;87.47;101103.78;5065778;28;45534;-59
2023/12/10 09:52:08;;;;;;;;;3.33;3.33;;;;;10.62;86.92;101101.13;5054369;28;45514;-59
2023/12/10 09:54:33;;;;;;;;;3.33;2.00;;;;;10.61;86.95;101110.88;5057359;28;45491;-59
2023/12/10 09:56:58;;;;;;;;;4.00;2.00;;;;;10.65;88.11;101109.84;5054355;28;55386;-59
2023/12/10 09:59:24;;;;;;;;;3.33;3.00;;;;;10.67;87.51;101101.78;5056704;28;73060;-59
2023/12/10 10:01:50;;;;;;;;;5.33;2.33;;;;;10.74;87.59;101098.78;5058482;28;69424;-59
2023/12/10 10:04:16;;;;;;;;;2.00;0.00;;;;;10.88;88.50;101097.25;5056735;28;45493;-58
2023/12/10 10:06:42;;;;;;;;;3.00;2.00;;;;;11.00;86.74;101088.72;5052656;28;47099;-57
2023/12/10 10:09:07;;;;;;;;;5.00;1.50;;;;;11.04;86.36;101079.66;5058305;28;45416;-58
2023/12/10 10:11:33;;;;;;;;;4.33;2.67;;;;;11.00;85.78;101088.72;5083554;27;50909;-57
2023/12/10 10:13:58;;;;;;;;;5.00;3.00;;;;;10.96;86.16;101068.47;5052990;28;45472;-60
2023/12/10 10:16:24;;;;;;;;;3.33;2.00;;;;;10.93;86.74;101060.66;5056126;28;47594;-57
2023/12/10 10:18:49;;;;;;;;;1.00;1.00;;;;;10.86;85.71;101065.41;5058269;28;64553;-58
2023/12/10 10:21:15;;;;;;;;;6.33;2.00;;;;;10.89;87.26;101059.94;5052629;28;45513;-58
2023/12/10 10:23:41;;;;;;;;;3.00;1.33;;;;;10.93;86.72;101058.00;5055500;28;45633;-57
2023/12/10 10:26:07;;;;;;;;;6.00;2.33;;;;;10.87;84.97;101048.50;5049670;28;45480;-57
2023/12/10 10:28:34;;;;;;;;;3.33;2.00;;;;;10.87;85.60;101043.19;5053648;28;45497;-57
2023/12/10 10:30:59;;;;;;;;;3.33;2.67;;;;;10.90;85.74;101045.69;5055548;28;45271;-57
2023/12/10 10:33:25;;;;;;;;;2.00;2.00;;;;;11.01;86.51;101036.34;5053868;28;68437;-57
2023/12/10 10:35:54;;;;;;;;;8.00;4.00;;;;;11.14;85.63;101031.28;5055545;28;73440;-57
2023/12/10 10:38:22;;;;;;;;;3.33;2.00;;;;;11.20;82.73;101023.00;5059514;28;72061;-56
2023/12/10 10:40:48;;;;;;;;;3.67;3.00;;;;;11.19;81.73;101018.63;5052963;28;69377;-57
2023/12/10 10:43:13;;;;;;;;;3.67;1.00;;;;;11.34;83.89;101009.00;5057895;28;45265;-58
2023/12/10 10:45:38;;;;;;;;;5.67;1.33;;;;;11.49;82.49;100999.38;5056306;28;45605;-58
2023/12/10 10:48:05;;;;;;;;;3.00;1.33;;;;;11.58;80.58;100974.94;5055717;28;73360;-58
2023/12/10 10:50:31;;;;;;;;;4.67;3.33;;;;;11.61;80.65;100974.75;5041479;28;45596;-58
2023/12/10 10:52:57;;;;;;;;;1.00;1.00;;;;;11.67;81.09;100977.13;5051713;28;45915;-58
2023/12/10 10:55:22;;;;;;;;;8.33;2.00;;;;;11.72;79.77;100966.22;5050471;28;46339;-57
2023/12/10 10:57:48;;;;;;;;;0.67;0.67;;;;;11.84;81.85;100978.91;5055560;28;45610;-57
2023/12/10 11:00:16;;;;;;;;;3.00;1.00;;;;;11.92;80.85;100979.34;5059128;28;45654;-57
2023/12/10 11:02:41;;;;;;;;;1.00;1.00;;;;;12.01;81.69;100979.84;5056837;28;45537;-60
2023/12/10 11:05:07;;;;;;;;;0.67;0.00;;;;;12.08;77.11;100967.91;5060009;28;74478;-61
2023/12/10 11:07:32;;;;;;;;;2.00;2.00;;;;;12.14;78.97;100972.06;5055778;28;73222;-60
2023/12/10 11:10:02;;;;;;;;;3.67;2.00;;;;;12.16;77.57;100962.16;5054320;28;53136;-60
2023/12/10 11:12:39;;;;;;;;;5.33;2.00;;;;;12.27;77.49;100964.25;5065105;28;45547;-57
2023/12/10 11:15:05;;;;;;;;;1.00;1.00;;;;;12.38;76.35;100946.72;5059402;28;47685;-60
2023/12/10 11:17:30;;;;;;;;;4.00;1.00;;;;;12.51;76.17;100932.69;5035622;28;45739;-59
2023/12/10 11:19:59;;;;;;;;;4.33;2.00;;;;;12.64;75.17;100935.53;5058597;28;59438;-60
2023/12/10 11:22:24;;;;;;;;;3.33;1.67;;;;;12.70;73.97;100935.19;5057567;28;62280;-59
2023/12/10 11:24:50;;;;;;;;;5.00;2.00;;;;;12.62;73.15;100937.41;5058120;28;66148;-58